Date,TemperatureHighF,TemperatureAvgF,TemperatureLowF,DewpointHighF,DewpointAvgF,DewpointLowF,HumidityHigh,HumidityAvg,HumidityLow,PressureMaxIn,PressureMinIn,WindSpeedMaxMPH,WindSpeedAvgMPH,GustSpeedMaxMPH,PrecipitationSumIn
2013-3-1,50.4,43.0,33.0,44.2,39.9,30.3,97,89,75,30.43,30.37,8,1,0,0.00
2013-3-2,48.3,40.0,31.4,37.5,35.1,29.9,96,83,64,30.39,30.21,9,1,0,0.00
2013-3-3,47.4,41.7,38.5,37.9,36.2,32.8,90,81,67,30.21,29.92,12,3,13,0.00
2013-3-4,43.1,40.7,37.9,40.3,37.3,33.3,93,88,81,29.92,29.60,10,2,0,0.00
2013-3-5,49.4,42.4,34.3,43.5,38.8,32.9,96,87,73,29.60,29.40,9,2,0,0.13
2013-3-6,49.6,45.8,41.9,47.5,44.2,39.7,96,94,91,29.40,29.27,14,3,14,0.14
2013-3-7,50.6,48.1,46.5,48.4,46.7,45.2,96,95,91,29.27,29.08,13,3,16,0.03
2013-3-8,55.3,50.6,47.3,51.9,48.3,45.4,97,92,83,29.30,29.05,14,4,16,0.07
2013-3-9,56.9,49.2,42.2,48.7,45.3,38.8,94,87,67,29.54,29.25,18,4,23,0.00
2013-3-10,42.1,39.3,32.6,38.8,34.2,25.8,89,82,69,29.87,29.53,20,5,23,0.00
2013-3-11,39.4,32.5,28.4,25.7,22.4,16.0,80,67,41,30.06,29.86,20,7,24,0.00
2013-3-12,45.2,35.1,24.8,36.6,27.7,19.4,94,75,51,30.08,29.96,15,4,15,0.00
2013-3-13,49.6,40.8,33.6,42.2,36.3,31.4,94,85,64,30.05,29.93,20,3,20,0.00
2013-3-14,48.7,42.6,33.6,43.0,38.8,32.1,95,86,72,30.05,29.56,25,7,29,0.05
2013-3-15,46.3,42.0,36.9,43.6,38.7,34.2,96,88,75,29.56,29.23,25,6,27,0.19
2013-3-16,46.8,37.7,30.4,39.7,33.9,29.1,98,87,59,29.29,29.18,11,2,13,0.01
2013-3-17,46.3,40.0,33.9,41.0,36.5,31.8,96,87,76,29.27,29.08,24,4,28,0.02
2013-3-18,48.2,39.7,33.1,39.4,35.7,32.1,97,86,61,29.40,29.11,10,2,12,0.00
2013-3-19,40.3,37.0,31.5,36.1,33.1,29.1,92,86,77,29.47,29.40,12,4,15,0.00
2013-3-20,46.3,39.2,30.3,36.7,33.4,28.8,97,80,62,29.71,29.47,8,2,0,0.00
2013-3-21,43.2,40.3,35.7,41.6,37.4,32.5,96,89,83,29.70,29.22,26,6,28,0.31
2013-3-22,49.2,46.0,42.8,48.3,44.8,41.7,98,96,90,29.44,29.15,26,7,31,0.28
2013-3-23,46.1,42.1,38.9,43.3,39.1,35.3,96,89,79,29.75,29.44,18,4,22,0.00
2013-3-24,38.9,37.2,36.0,35.3,32.4,30.4,87,83,76,29.92,29.75,15,4,19,0.00
2013-3-25,41.3,37.2,32.3,31.2,28.4,25.6,85,71,56,30.00,29.92,19,4,21,0.00
2013-3-26,39.7,34.7,31.5,32.8,29.9,27.9,91,82,68,30.01,29.93,11,3,15,0.00
2013-3-27,42.2,34.9,30.0,33.0,29.5,27.1,94,81,61,29.95,29.90,12,3,13,0.00
2013-3-28,43.3,35.0,27.9,30.7,27.7,25.8,94,76,53,29.92,29.73,19,4,19,0.00
2013-3-29,43.7,37.7,32.0,28.4,27.3,25.6,78,66,53,29.74,29.66,18,5,26,0.00
2013-3-30,45.9,38.5,31.0,29.7,27.5,25.1,79,65,50,29.82,29.74,19,5,19,0.00
2013-3-31,42.6,39.2,35.5,36.8,33.2,27.8,85,79,70,29.76,29.62,19,6,21,0.00